Time;durP1;ratioP1;P1;durP2;ratioP2;P2;SDS_P1;SDS_P2;PMS_P1;PMS_P2;Temp;Humidity;BMP_temperature;BMP_pressure;BME280_temperature;BME280_humidity;BME280_pressure;Samples;Min_cycle;Max_cycle;Signal;HPM_P1;HPM_P2
2023/08/20 00:01:42;;;;;;;1.48;0.73;;;;;;;17.63;73.07;102339.78;5058197;28;20056;-77
2023/08/20 00:04:10;;;;;;;2.30;0.60;;;;;;;17.62;72.99;102342.47;5059729;28;20048;-73
2023/08/20 00:06:38;;;;;;;3.13;0.70;;;;;;;17.62;73.11;102343.31;5056942;28;20053;-74
2023/08/20 00:09:06;;;;;;;0.60;0.50;;;;;;;17.61;73.12;102341.56;5056654;28;20454;-74
2023/08/20 00:11:33;;;;;;;2.42;0.70;;;;;;;17.60;72.90;102337.19;5055761;28;20052;-74
2023/08/20 00:14:00;;;;;;;4.28;0.82;;;;;;;17.60;73.02;102333.69;5055087;28;20045;-75
2023/08/20 00:16:27;;;;;;;1.40;0.55;;;;;;;17.59;73.04;102343.41;5055209;28;20048;-75
2023/08/20 00:18:56;;;;;;;1.60;0.50;;;;;;;17.59;73.15;102342.50;5054655;28;20122;-74
2023/08/20 00:21:24;;;;;;;1.15;0.60;;;;;;;17.57;72.96;102332.00;5055067;28;20396;-74
2023/08/20 00:23:51;;;;;;;0.47;0.47;;;;;;;17.57;72.90;102332.00;5052028;28;20049;-75
2023/08/20 00:26:19;;;;;;;1.10;0.50;;;;;;;17.56;73.22;102324.06;5054067;28;20047;-74
2023/08/20 00:28:45;;;;;;;1.10;0.50;;;;;;;17.56;73.14;102322.34;5055160;28;20496;-74
2023/08/20 00:31:12;;;;;;;1.95;0.40;;;;;;;17.56;72.98;102327.63;5050621;28;20353;-75
2023/08/20 00:33:39;;;;;;;0.50;0.43;;;;;;;17.56;72.72;102332.91;5054271;28;20438;-74
2023/08/20 00:36:08;;;;;;;0.88;0.68;;;;;;;17.54;72.88;102329.41;5057935;28;20052;-74
2023/08/20 00:38:35;;;;;;;2.75;0.50;;;;;;;17.54;72.74;102337.34;5053080;28;20049;-74
2023/08/20 00:41:01;;;;;;;3.78;0.50;;;;;;;17.50;73.01;102333.00;5054461;28;20056;-74
2023/08/20 00:43:28;;;;;;;0.88;0.70;;;;;;;17.29;72.84;102292.97;5059661;28;20041;-74
2023/08/20 00:45:55;;;;;;;2.70;0.60;;;;;;;17.53;72.91;102332.94;5044640;28;20052;-74
2023/08/20 00:48:22;;;;;;;4.05;0.50;;;;;;;17.54;73.00;102340.00;5053978;28;20049;-74
2023/08/20 00:50:49;;;;;;;4.10;0.85;;;;;;;17.54;73.01;102334.69;5056031;28;20048;-75
2023/08/20 00:53:18;;;;;;;3.05;0.50;;;;;;;17.54;73.06;102337.34;5058494;28;20048;-75
2023/08/20 00:55:45;;;;;;;0.63;0.60;;;;;;;17.50;73.23;102327.72;5048096;28;20056;-74
2023/08/20 00:58:12;;;;;;;3.60;0.63;;;;;;;17.50;73.10;102328.63;5057147;28;20747;-74
2023/08/20 01:00:39;;;;;;;3.13;0.60;;;;;;;17.50;72.93;102323.34;5055388;28;20045;-74
2023/08/20 01:03:06;;;;;;;1.80;0.50;;;;;;;17.50;72.87;102322.44;5054599;28;20422;-73
2023/08/20 01:05:37;;;;;;;1.55;0.50;;;;;;;17.49;73.04;102311.03;5052420;28;20049;-73
2023/08/20 01:08:24;;;;;;;0.70;0.50;;;;;;;17.49;73.02;102316.31;5050757;28;20048;-73
2023/08/20 01:10:58;;;;;;;0.95;0.52;;;;;;;17.47;72.93;102312.81;5057082;28;20042;-77
2023/08/20 01:13:25;;;;;;;1.55;0.60;;;;;;;17.48;73.17;102313.72;5058143;28;20045;-76
2023/08/20 01:15:52;;;;;;;1.00;0.50;;;;;;;17.47;72.97;102309.31;5052581;28;20049;-76
2023/08/20 01:18:19;;;;;;;2.50;0.50;;;;;;;17.46;73.07;102310.22;5057624;28;20041;-76
2023/08/20 01:20:54;;;;;;;0.90;0.40;;;;;;;17.46;73.06;102300.53;5050537;28;20139;-76
2023/08/20 01:23:49;;;;;;;0.65;0.50;;;;;;;17.47;73.16;102304.03;5055715;28;20045;-76
2023/08/20 01:26:36;;;;;;;0.70;0.40;;;;;;;17.46;72.96;102304.94;5050847;28;20054;-76
2023/08/20 01:29:06;;;;;;;0.50;0.40;;;;;;;17.44;73.04;102296.19;5050082;28;20053;-76
2023/08/20 01:31:34;;;;;;;1.40;0.50;;;;;;;17.43;72.87;102299.72;5051988;28;20531;-77
2023/08/20 01:34:03;;;;;;;2.05;0.50;;;;;;;17.44;73.06;102304.09;5055384;28;20053;-76
2023/08/20 01:36:30;;;;;;;0.57;0.50;;;;;;;17.44;72.96;102293.53;5053963;28;20076;-76
2023/08/20 01:38:57;;;;;;;2.50;0.40;;;;;;;17.44;72.58;102290.88;5055406;28;20466;-77
2023/08/20 01:41:24;;;;;;;0.50;0.38;;;;;;;17.44;72.38;102304.09;5060186;28;20071;-76
2023/08/20 01:43:51;;;;;;;1.10;0.45;;;;;;;17.35;72.31;102286.69;5053486;28;20044;-76
2023/08/20 01:46:19;;;;;;;0.45;0.40;;;;;;;17.43;72.47;102299.72;5059286;28;20060;-76
2023/08/20 01:48:46;;;;;;;4.53;1.10;;;;;;;17.44;72.45;102301.47;5060263;28;20048;-78
2023/08/20 01:51:13;;;;;;;1.05;0.50;;;;;;;17.43;72.37;102302.38;5059934;28;20384;-76
2023/08/20 01:53:40;;;;;;;2.53;0.32;;;;;;;17.43;72.25;102305.00;5058916;28;20053;-75
2023/08/20 01:56:12;;;;;;;1.40;0.50;;;;;;;17.41;72.24;102304.16;5060552;28;20048;-77
2023/08/20 01:58:39;;;;;;;1.30;0.50;;;;;;;17.41;72.24;102312.09;5060168;28;20048;-77
2023/08/20 02:01:05;;;;;;;1.58;0.40;;;;;;;17.39;72.33;102308.59;5061104;28;20135;-76
2023/08/20 02:03:35;;;;;;;0.70;0.40;;;;;;;17.39;72.24;102313.88;5058864;28;20426;-76
2023/08/20 02:06:01;;;;;;;5.03;0.40;;;;;;;17.38;71.92;102306.88;5059214;28;20048;-76
2023/08/20 02:08:28;;;;;;;0.73;0.40;;;;;;;17.37;72.28;102311.31;5058705;28;20051;-77
2023/08/20 02:11:01;;;;;;;0.40;0.32;;;;;;;17.36;72.04;102306.94;5052141;28;20510;-74
2023/08/20 02:13:28;;;;;;;0.90;0.30;;;;;;;17.36;72.10;102309.56;5060251;28;20102;-74
2023/08/20 02:15:59;;;;;;;0.60;0.40;;;;;;;17.36;72.23;102306.94;5059786;28;20487;-73
2023/08/20 02:18:26;;;;;;;3.50;1.20;;;;;;;17.36;72.04;102306.03;5058770;28;20127;-73
2023/08/20 02:20:54;;;;;;;1.40;0.40;;;;;;;17.35;72.15;102297.25;5055692;28;20060;-78
2023/08/20 02:23:21;;;;;;;0.70;0.40;;;;;;;17.35;72.12;102299.03;5066831;28;20105;-78
2023/08/20 02:25:49;;;;;;;0.60;0.30;;;;;;;17.36;72.20;102306.03;5063589;28;20147;-78
2023/08/20 02:28:16;;;;;;;3.10;0.50;;;;;;;17.35;72.31;102293.75;5064185;28;20506;-78
2023/08/20 02:30:43;;;;;;;0.40;0.40;;;;;;;17.33;72.39;102298.19;5063850;28;20044;-79
2023/08/20 02:33:10;;;;;;;3.50;0.30;;;;;;;17.35;72.39;102296.38;5067446;28;20634;-78
2023/08/20 02:35:37;;;;;;;0.60;0.40;;;;;;;17.36;72.36;102300.75;5062030;28;20501;-77
2023/08/20 02:38:06;;;;;;;1.65;0.30;;;;;;;17.36;72.35;102293.72;5066356;28;20055;-78
2023/08/20 02:40:33;;;;;;;0.85;0.43;;;;;;;17.35;72.47;102291.97;5062777;28;20052;-78
2023/08/20 02:43:00;;;;;;;0.75;0.50;;;;;;;17.35;72.54;102293.75;5065877;28;20083;-80
2023/08/20 02:45:26;;;;;;;0.95;0.50;;;;;;;17.35;72.44;102297.25;5065822;28;20049;-77
2023/08/20 02:47:53;;;;;;;0.45;0.35;;;;;;;17.35;72.38;102293.75;5065713;28;20058;-78
2023/08/20 02:50:20;;;;;;;1.75;0.25;;;;;;;17.35;72.44;102285.81;5062721;28;20055;-79
2023/08/20 02:52:47;;;;;;;0.57;0.30;;;;;;;17.35;72.62;102286.69;5066317;28;20044;-78
2023/08/20 02:55:16;;;;;;;2.17;0.45;;;;;;;17.35;72.56;102288.47;5066426;28;20041;-78
2023/08/20 02:57:43;;;;;;;0.60;0.30;;;;;;;17.35;72.53;102285.81;5065335;28;20411;-78
2023/08/20 03:00:11;;;;;;;0.30;0.30;;;;;;;17.34;72.51;102284.09;5062582;28;20044;-78
2023/08/20 03:02:39;;;;;;;0.60;0.60;;;;;;;17.29;72.44;102279.78;5063188;28;20049;-78
2023/08/20 03:05:07;;;;;;;0.88;0.50;;;;;;;17.34;72.41;102284.09;5063406;28;20105;-77
2023/08/20 03:07:34;;;;;;;1.48;0.30;;;;;;;17.34;72.48;102289.38;5037815;28;20453;-74
2023/08/20 03:10:01;;;;;;;3.08;0.60;;;;;;;17.33;72.73;102291.13;5058066;28;20049;-75
2023/08/20 03:12:29;;;;;;;0.60;0.40;;;;;;;17.34;72.50;102279.69;5054949;28;20519;-74
2023/08/20 03:14:56;;;;;;;0.80;0.38;;;;;;;17.35;72.48;102286.69;5055611;28;20051;-74
2023/08/20 03:17:23;;;;;;;1.52;0.30;;;;;;;17.31;72.31;102275.34;5059775;28;20043;-73
2023/08/20 03:19:58;;;;;;;0.70;0.40;;;;;;;17.35;72.46;102285.81;5056221;28;20041;-73
2023/08/20 03:22:25;;;;;;;3.30;0.40;;;;;;;17.35;72.41;102280.53;5055170;28;20408;-74
2023/08/20 03:24:52;;;;;;;0.80;0.40;;;;;;;17.33;72.59;102283.19;5054598;28;20411;-75
2023/08/20 03:27:20;;;;;;;3.22;0.40;;;;;;;17.34;72.59;102278.81;5051402;28;20083;-73
2023/08/20 03:29:48;;;;;;;0.43;0.40;;;;;;;17.34;72.65;102284.09;5059274;28;20052;-73
2023/08/20 03:32:15;;;;;;;0.40;0.35;;;;;;;17.34;72.52;102282.31;5054374;28;20059;-73
2023/08/20 03:34:42;;;;;;;0.98;0.35;;;;;;;17.34;72.47;102281.47;5052478;28;20136;-73
2023/08/20 03:37:09;;;;;;;1.08;0.30;;;;;;;17.34;72.57;102284.09;5057761;28;20398;-73
2023/08/20 03:39:36;;;;;;;1.48;0.50;;;;;;;17.34;72.61;102282.31;5058270;28;20041;-74
2023/08/20 03:42:03;;;;;;;0.55;0.30;;;;;;;17.29;72.65;102278.91;5054763;28;20087;-73
2023/08/20 03:44:30;;;;;;;0.43;0.30;;;;;;;17.33;72.63;102290.25;5058499;28;20048;-73
2023/08/20 03:46:58;;;;;;;1.25;0.45;;;;;;;17.32;72.65;102281.47;5056718;28;20118;-73
2023/08/20 03:49:25;;;;;;;2.03;0.30;;;;;;;17.31;72.67;102279.75;5057605;28;20530;-73
2023/08/20 03:51:52;;;;;;;0.25;0.25;;;;;;;17.31;72.78;102285.91;5055765;28;20052;-74
2023/08/20 03:54:19;;;;;;;1.10;0.30;;;;;;;17.31;72.60;102285.91;5056097;28;20041;-74
2023/08/20 03:56:46;;;;;;;2.17;0.30;;;;;;;17.30;72.76;102281.53;5052728;28;20048;-73
2023/08/20 03:59:13;;;;;;;0.68;0.30;;;;;;;17.30;72.58;102278.88;5054200;28;20076;-73
2023/08/20 04:01:40;;;;;;;1.38;0.32;;;;;;;17.30;72.76;102278.88;5052314;28;20423;-73
2023/08/20 04:04:08;;;;;;;1.35;0.30;;;;;;;17.30;72.93;102273.59;5053927;28;20048;-73
2023/08/20 04:06:35;;;;;;;0.40;0.30;;;;;;;17.30;72.97;102275.34;5041787;28;20401;-74
2023/08/20 04:09:02;;;;;;;0.60;0.40;;;;;;;17.29;72.80;102274.50;5058442;28;20044;-74
2023/08/20 04:11:29;;;;;;;0.30;0.22;;;;;;;17.30;72.59;102267.44;5053405;28;20088;-73
2023/08/20 04:13:56;;;;;;;1.55;0.32;;;;;;;17.29;72.97;102265.69;5058989;28;20051;-73
2023/08/20 04:16:23;;;;;;;0.40;0.30;;;;;;;17.28;72.85;102272.75;5055226;28;20824;-73
2023/08/20 04:18:50;;;;;;;0.38;0.30;;;;;;;17.29;72.93;102268.34;5056671;28;20601;-73
2023/08/20 04:21:18;;;;;;;0.40;0.30;;;;;;;17.29;72.90;102268.34;5054289;28;20462;-74
2023/08/20 04:23:45;;;;;;;1.67;0.30;;;;;;;17.23;72.74;102260.56;5054077;28;20423;-73
2023/08/20 04:26:12;;;;;;;0.40;0.30;;;;;;;17.29;72.75;102266.56;5054363;28;20447;-73
2023/08/20 04:28:39;;;;;;;1.13;0.30;;;;;;;17.29;73.08;102270.97;5056903;28;20407;-74
2023/08/20 04:31:06;;;;;;;0.70;0.30;;;;;;;17.29;72.92;102266.56;5054620;28;20049;-75
2023/08/20 04:33:33;;;;;;;0.30;0.30;;;;;;;17.29;72.85;102260.41;5054832;28;20041;-75
2023/08/20 04:36:00;;;;;;;2.25;0.30;;;;;;;17.22;72.81;102243.00;5057317;28;20498;-76
2023/08/20 04:38:28;;;;;;;3.50;0.30;;;;;;;17.30;73.06;102251.59;5056733;28;20503;-75
2023/08/20 04:40:55;;;;;;;1.13;0.30;;;;;;;17.30;73.18;102249.84;5062674;28;20135;-78
2023/08/20 04:43:22;;;;;;;1.08;0.30;;;;;;;17.30;73.26;102249.84;5057156;28;20407;-78
2023/08/20 04:45:50;;;;;;;0.70;0.20;;;;;;;17.31;73.11;102243.63;5057377;28;20049;-78
2023/08/20 04:48:17;;;;;;;0.60;0.30;;;;;;;17.31;73.11;102248.91;5061721;28;20139;-78
2023/08/20 04:50:44;;;;;;;0.65;0.20;;;;;;;17.31;73.32;102241.00;5060083;28;20062;-78
2023/08/20 04:53:11;;;;;;;0.80;0.30;;;;;;;17.31;73.18;102243.63;5062278;28;20062;-77
2023/08/20 04:55:39;;;;;;;2.95;0.30;;;;;;;17.32;73.17;102244.50;5062053;28;20040;-78
2023/08/20 04:58:06;;;;;;;1.75;0.30;;;;;;;17.31;73.35;102243.63;5063278;28;20445;-78
2023/08/20 05:00:33;;;;;;;1.65;0.30;;;;;;;17.33;73.20;102248.88;5061388;28;20419;-79
2023/08/20 05:03:00;;;;;;;4.03;0.30;;;;;;;17.32;73.44;102244.50;5061239;28;20051;-78
2023/08/20 05:05:27;;;;;;;0.50;0.22;;;;;;;17.33;73.21;102240.06;5062922;28;20056;-78
2023/08/20 05:07:54;;;;;;;0.50;0.30;;;;;;;17.34;73.12;102241.84;5061343;28;20045;-78
2023/08/20 05:10:21;;;;;;;0.38;0.22;;;;;;;17.22;73.18;102222.72;5042158;28;20052;-78
2023/08/20 05:12:49;;;;;;;0.40;0.30;;;;;;;17.35;73.54;102243.56;5058354;28;20106;-78
2023/08/20 05:15:16;;;;;;;0.73;0.30;;;;;;;17.35;73.34;102238.28;5063379;28;20096;-78
2023/08/20 05:17:43;;;;;;;0.38;0.30;;;;;;;17.35;73.39;102243.56;5062433;28;20040;-79
2023/08/20 05:20:11;;;;;;;0.20;0.20;;;;;;;17.35;73.19;102236.50;5059851;28;20045;-78
2023/08/20 05:22:38;;;;;;;0.60;0.30;;;;;;;17.34;73.23;102234.78;5061935;28;20103;-78
2023/08/20 05:25:05;;;;;;;0.63;0.20;;;;;;;17.36;73.23;102229.44;5063039;28;20037;-78
2023/08/20 05:27:32;;;;;;;0.70;0.35;;;;;;;17.37;73.26;102228.56;5061924;28;20651;-79
2023/08/20 05:30:01;;;;;;;0.38;0.30;;;;;;;17.27;73.42;102214.69;5062676;28;20132;-78
2023/08/20 05:32:27;;;;;;;4.43;0.95;;;;;;;17.38;73.41;102225.84;5062058;28;20438;-79
2023/08/20 05:34:54;;;;;;;0.80;0.30;;;;;;;17.39;73.51;102229.38;5056986;28;20045;-78
2023/08/20 05:37:21;;;;;;;2.58;0.40;;;;;;;17.40;73.52;102220.56;5061041;28;21250;-78
2023/08/20 05:39:48;;;;;;;0.43;0.30;;;;;;;17.41;73.30;102217.88;5063213;28;20405;-78
2023/08/20 05:42:16;;;;;;;2.90;0.30;;;;;;;17.24;73.33;102189.22;5062038;28;20040;-80
2023/08/20 05:44:43;;;;;;;0.55;0.22;;;;;;;17.41;73.48;102219.63;5065260;28;20048;-79
2023/08/20 05:47:11;;;;;;;0.30;0.20;;;;;;;17.43;73.50;102223.13;5059749;28;20045;-78
2023/08/20 05:49:38;;;;;;;0.40;0.30;;;;;;;17.30;73.38;102193.47;5063465;28;20041;-78
2023/08/20 05:52:05;;;;;;;0.50;0.30;;;;;;;17.44;73.44;102216.91;5055545;28;20059;-79
2023/08/20 05:54:36;;;;;;;0.40;0.20;;;;;;;17.41;73.20;102215.22;5057630;28;20140;-77
2023/08/20 05:57:03;;;;;;;0.65;0.30;;;;;;;17.46;73.52;102215.13;5055528;28;20048;-77
2023/08/20 05:59:32;;;;;;;0.52;0.20;;;;;;;17.43;73.33;102217.84;5054846;28;20044;-78
2023/08/20 06:02:02;;;;;;;0.70;0.30;;;;;;;17.47;73.26;102216.84;5050909;28;20218;-76
2023/08/20 06:04:30;;;;;;;0.20;0.20;;;;;;;17.48;73.45;102218.59;5057334;28;20041;-77
2023/08/20 06:06:57;;;;;;;0.30;0.30;;;;;;;17.47;73.27;102217.72;5056112;28;20040;-78
2023/08/20 06:09:24;;;;;;;0.38;0.20;;;;;;;17.37;73.30;102195.09;5059158;28;20052;-78
2023/08/20 06:11:52;;;;;;;2.15;0.30;;;;;;;17.20;73.32;102174.34;5058321;28;20049;-78
2023/08/20 06:14:19;;;;;;;1.92;0.30;;;;;;;17.51;73.25;102221.16;5058345;28;20723;-78
2023/08/20 06:16:46;;;;;;;0.90;0.20;;;;;;;17.45;73.40;102211.63;5059475;28;20048;-77
2023/08/20 06:19:13;;;;;;;0.40;0.30;;;;;;;17.52;73.41;102215.84;5050175;28;20551;-78
2023/08/20 06:21:41;;;;;;;0.75;0.30;;;;;;;17.50;73.41;102209.75;5062149;28;20063;-77
2023/08/20 06:24:08;;;;;;;1.48;0.20;;;;;;;17.55;73.26;102222.81;5058604;28;20467;-77
2023/08/20 06:26:35;;;;;;;0.85;0.30;;;;;;;17.56;73.12;102216.66;5062976;28;20041;-79
2023/08/20 06:29:02;;;;;;;0.43;0.30;;;;;;;17.55;73.09;102214.88;5061277;28;20056;-77
2023/08/20 06:31:29;;;;;;;0.32;0.30;;;;;;;17.58;73.27;102214.81;5063336;28;20079;-78
2023/08/20 06:33:56;;;;;;;1.05;0.30;;;;;;;17.60;73.10;102212.16;5060432;28;20041;-78
2023/08/20 06:36:31;;;;;;;0.20;0.20;;;;;;;17.59;72.86;102203.34;5061479;28;20483;-78
2023/08/20 06:38:59;;;;;;;1.10;0.30;;;;;;;17.61;73.04;102209.44;5060229;28;20131;-78
2023/08/20 06:41:32;;;;;;;0.30;0.30;;;;;;;17.63;73.12;102201.50;5060233;28;20491;-78
2023/08/20 06:43:59;;;;;;;1.80;0.40;;;;;;;17.62;73.09;102200.63;5052151;28;20076;-78
2023/08/20 06:46:29;;;;;;;0.90;0.30;;;;;;;17.63;73.05;102197.06;5061370;28;21608;-77
2023/08/20 06:48:56;;;;;;;0.95;0.32;;;;;;;17.45;72.86;102171.13;5060164;28;20063;-77
2023/08/20 06:51:23;;;;;;;1.35;0.30;;;;;;;17.63;72.87;102207.63;5055804;28;20066;-74
2023/08/20 06:53:50;;;;;;;1.23;0.25;;;;;;;17.64;73.17;102206.72;5051605;28;20419;-76
2023/08/20 06:56:19;;;;;;;0.90;0.30;;;;;;;17.66;73.03;102206.69;5057702;28;20057;-75
2023/08/20 06:58:50;;;;;;;0.82;0.20;;;;;;;17.67;73.06;102209.31;5054291;28;20041;-75
2023/08/20 07:01:17;;;;;;;1.75;0.40;;;;;;;17.69;72.83;102198.69;5055778;28;20041;-76
2023/08/20 07:03:45;;;;;;;1.38;0.30;;;;;;;17.60;72.93;102181.31;5058615;28;20062;-76
2023/08/20 07:06:14;;;;;;;0.30;0.30;;;;;;;17.71;73.11;102196.88;5051720;28;20130;-76
2023/08/20 07:08:41;;;;;;;1.40;0.40;;;;;;;17.73;73.26;102197.69;5055965;28;20470;-77
2023/08/20 07:11:08;;;;;;;0.50;0.30;;;;;;;17.71;73.31;102196.88;5054238;28;20051;-76
2023/08/20 07:13:37;;;;;;;0.75;0.30;;;;;;;17.77;73.13;102208.16;5058089;28;20033;-76
2023/08/20 07:16:04;;;;;;;3.95;0.40;;;;;;;17.80;73.10;102206.38;5050949;28;20137;-77
2023/08/20 07:18:31;;;;;;;0.90;0.45;;;;;;;17.81;73.02;102211.63;5049233;28;20059;-78
2023/08/20 07:20:58;;;;;;;0.43;0.38;;;;;;;17.83;73.15;102211.59;5051645;28;20055;-77
2023/08/20 07:23:25;;;;;;;0.43;0.22;;;;;;;17.86;73.21;102207.09;5052640;28;20049;-77
2023/08/20 07:26:05;;;;;;;0.93;0.50;;;;;;;17.82;73.08;102207.22;5056908;28;20047;-74
2023/08/20 07:31:14;;;;;;;1.40;0.40;;;;;;;17.90;73.09;102213.16;5033977;28;21272;-77
2023/08/20 07:33:41;;;;;;;2.72;1.05;;;;;;;17.93;72.91;102205.13;5053589;28;20162;-75
2023/08/20 07:36:08;;;;;;;1.95;0.47;;;;;;;17.93;72.90;102208.69;5057206;28;20505;-77
2023/08/20 07:38:39;;;;;;;1.80;0.52;;;;;;;17.96;72.73;102210.38;5061136;28;20060;-78
2023/08/20 07:41:06;;;;;;;1.80;0.50;;;;;;;17.97;72.81;102201.53;5055128;28;20517;-77
2023/08/20 07:43:35;;;;;;;1.40;0.30;;;;;;;17.79;72.72;102178.19;5061153;28;20101;-79
2023/08/20 07:46:02;;;;;;;0.40;0.40;;;;;;;17.91;72.69;102191.13;5062525;28;20392;-80
2023/08/20 07:48:32;;;;;;;0.60;0.40;;;;;;;18.01;72.62;102207.59;5060436;28;20044;-79
2023/08/20 07:50:59;;;;;;;1.55;0.40;;;;;;;18.02;72.35;102206.69;5062863;28;20052;-79
2023/08/20 07:53:26;;;;;;;4.97;0.38;;;;;;;18.02;72.47;102212.84;5063501;28;20498;-79
2023/08/20 07:55:53;;;;;;;4.03;0.85;;;;;;;18.03;72.42;102204.00;5062862;28;20051;-79
2023/08/20 07:58:20;;;;;;;1.70;0.40;;;;;;;18.06;72.62;102213.63;5064822;28;20040;-80
2023/08/20 08:00:46;;;;;;;1.45;0.70;;;;;;;18.07;72.51;102210.97;5051462;28;20136;-74
2023/08/20 08:03:14;;;;;;;0.95;0.50;;;;;;;18.09;72.56;102210.91;5050983;28;20514;-74
2023/08/20 08:05:42;;;;;;;1.75;0.40;;;;;;;18.11;72.33;102212.59;5052225;28;20503;-74
2023/08/20 08:08:09;;;;;;;0.98;0.47;;;;;;;18.12;72.53;102214.31;5048457;28;20431;-73
2023/08/20 08:10:36;;;;;;;4.32;0.50;;;;;;;18.14;72.26;102217.81;5054907;28;20412;-80
2023/08/20 08:13:03;;;;;;;1.25;0.50;;;;;;;18.17;72.51;102208.91;5061814;28;20037;-79
2023/08/20 08:15:30;;;;;;;1.20;0.75;;;;;;;18.20;72.44;102212.34;5063384;28;20131;-80
2023/08/20 08:17:57;;;;;;;0.40;0.40;;;;;;;18.23;72.43;102218.47;5056532;28;20048;-80
2023/08/20 08:20:24;;;;;;;0.93;0.50;;;;;;;18.24;72.34;102218.41;5058981;28;20052;-79
2023/08/20 08:22:52;;;;;;;1.85;0.40;;;;;;;18.26;72.21;102213.94;5060186;28;20047;-79
2023/08/20 08:25:19;;;;;;;1.40;0.55;;;;;;;18.27;72.23;102214.81;5062550;28;20044;-79
2023/08/20 08:27:46;;;;;;;2.35;0.40;;;;;;;18.30;72.15;102215.63;5058838;28;20044;-79
2023/08/20 08:30:14;;;;;;;2.35;0.43;;;;;;;18.31;72.25;102208.53;5059727;28;20049;-80
2023/08/20 08:32:41;;;;;;;1.10;0.60;;;;;;;18.35;72.34;102211.03;5060414;28;20114;-80
2023/08/20 08:35:08;;;;;;;0.50;0.45;;;;;;;18.37;72.41;102208.38;5061400;28;20132;-79
2023/08/20 08:37:35;;;;;;;3.88;0.50;;;;;;;18.39;72.22;102203.91;5060208;28;20048;-80
2023/08/20 08:40:05;;;;;;;1.25;0.50;;;;;;;18.41;72.45;102196.78;5060801;28;20052;-80
2023/08/20 08:42:33;;;;;;;3.08;0.80;;;;;;;18.44;72.64;102196.69;5058806;28;20048;-78
2023/08/20 08:45:01;;;;;;;0.63;0.55;;;;;;;18.48;72.61;102193.06;5056854;28;20056;-78
2023/08/20 08:47:27;;;;;;;1.80;0.63;;;;;;;18.51;72.36;102192.97;5061948;28;20043;-78
2023/08/20 08:49:57;;;;;;;3.33;0.52;;;;;;;18.55;72.18;102184.00;5061953;28;20049;-79
2023/08/20 08:52:24;;;;;;;1.58;0.50;;;;;;;18.57;72.19;102174.25;5062965;28;20089;-78
2023/08/20 08:54:51;;;;;;;1.05;0.57;;;;;;;18.61;72.09;102178.56;5059719;28;20052;-78
2023/08/20 08:57:20;;;;;;;2.38;0.60;;;;;;;18.64;72.03;102173.16;5057814;28;20052;-78
2023/08/20 08:59:47;;;;;;;4.38;0.70;;;;;;;18.70;71.89;102168.59;5058359;28;20098;-78
2023/08/20 09:02:14;;;;;;;3.20;0.50;;;;;;;18.72;71.90;102153.53;5058962;28;20040;-79
2023/08/20 09:04:42;;;;;;;1.65;0.70;;;;;;;18.79;71.99;102160.41;5058951;28;20045;-78
2023/08/20 09:07:13;;;;;;;3.05;0.70;;;;;;;18.82;71.89;102161.19;5060921;28;20041;-78
2023/08/20 09:09:45;;;;;;;2.17;0.45;;;;;;;18.88;71.80;102160.13;5062231;28;20053;-78
2023/08/20 09:12:16;;;;;;;1.65;0.50;;;;;;;18.92;71.68;102166.19;5061391;28;20051;-78
2023/08/20 09:14:47;;;;;;;1.17;0.55;;;;;;;18.95;71.73;102166.94;5060408;28;20090;-78
2023/08/20 09:17:15;;;;;;;0.75;0.52;;;;;;;19.00;71.57;102166.81;5063402;28;20408;-77
2023/08/20 09:19:44;;;;;;;2.60;0.40;;;;;;;19.04;71.24;102177.28;5063400;28;20071;-81
2023/08/20 09:22:12;;;;;;;0.73;0.68;;;;;;;18.90;70.74;102137.13;5055978;28;20051;-76
2023/08/20 09:24:46;;;;;;;2.95;0.50;;;;;;;19.09;70.85;102167.38;5057465;28;20591;-76
2023/08/20 09:27:14;;;;;;;1.25;0.57;;;;;;;19.15;70.78;102174.25;5054366;28;20053;-76
2023/08/20 09:29:49;;;;;;;1.15;0.68;;;;;;;19.20;70.81;102166.19;5053864;28;20708;-75
2023/08/20 09:32:17;;;;;;;1.88;0.60;;;;;;;19.23;71.01;102161.63;5055094;28;20052;-74
2023/08/20 09:34:45;;;;;;;1.25;0.57;;;;;;;19.27;70.62;102165.94;5050225;28;20936;-76
2023/08/20 09:37:14;;;;;;;0.70;0.57;;;;;;;19.30;71.04;102163.19;5054337;28;20828;-75
2023/08/20 09:39:41;;;;;;;2.55;0.50;;;;;;;19.31;71.19;102161.41;5054737;28;20048;-75
2023/08/20 09:42:09;;;;;;;1.33;0.50;;;;;;;19.36;70.58;102163.91;5049919;28;20041;-75
2023/08/20 09:44:37;;;;;;;0.80;0.50;;;;;;;19.38;70.71;102165.59;5054042;28;20049;-75
2023/08/20 09:47:07;;;;;;;1.77;0.52;;;;;;;19.41;70.83;102170.78;5054379;28;20064;-75
2023/08/20 09:49:38;;;;;;;2.38;0.60;;;;;;;19.42;70.57;102167.22;5056413;28;20063;-75
2023/08/20 09:52:08;;;;;;;2.78;0.70;;;;;;;19.46;70.63;102174.13;5055506;28;20415;-76
2023/08/20 09:54:57;;;;;;;1.85;0.45;;;;;;;19.48;70.22;102177.59;5057797;28;20049;-76
2023/08/20 09:57:31;;;;;;;2.05;0.47;;;;;;;19.50;70.22;102185.50;5054770;28;20045;-75
2023/08/20 09:59:59;;;;;;;0.98;0.50;;;;;;;19.51;70.22;102172.19;5058686;28;20064;-76
2023/08/20 10:02:28;;;;;;;2.65;0.60;;;;;;;19.53;69.80;102174.81;5058683;28;20051;-75
2023/08/20 10:04:55;;;;;;;1.83;0.80;;;;;;;19.53;69.86;102170.38;5060625;28;20424;-76
2023/08/20 10:07:25;;;;;;;2.30;0.43;;;;;;;19.58;69.81;102164.03;5054950;28;20126;-78
2023/08/20 10:09:53;;;;;;;0.50;0.45;;;;;;;19.58;70.04;102172.88;5060062;28;20107;-75
2023/08/20 10:12:20;;;;;;;0.98;0.50;;;;;;;19.62;69.64;102178.94;5056030;28;20057;-75
2023/08/20 10:14:47;;;;;;;2.67;0.50;;;;;;;19.63;69.45;102165.59;5053785;28;20094;-76
2023/08/20 10:17:15;;;;;;;1.15;0.40;;;;;;;19.66;69.18;102168.19;5057907;28;20510;-75
2023/08/20 10:19:43;;;;;;;0.77;0.40;;;;;;;19.69;69.07;102161.91;5057261;28;20049;-76
2023/08/20 10:22:11;;;;;;;0.88;0.40;;;;;;;19.72;68.92;102175.06;5064117;28;20498;-78
2023/08/20 10:24:42;;;;;;;2.92;1.15;;;;;;;19.74;69.13;102168.78;5064487;28;20487;-79
2023/08/20 10:27:10;;;;;;;2.08;0.50;;;;;;;19.75;69.27;102159.94;5062259;28;20045;-78
2023/08/20 10:29:39;;;;;;;1.35;0.40;;;;;;;19.76;69.11;102160.78;5061714;28;20044;-75
2023/08/20 10:32:08;;;;;;;1.88;0.40;;;;;;;19.77;69.10;102157.22;5062881;28;21235;-82
2023/08/20 10:34:37;;;;;;;0.40;0.30;;;;;;;19.77;69.06;102154.56;5066662;28;20052;-82
2023/08/20 10:37:10;;;;;;;0.90;0.50;;;;;;;19.80;69.09;102151.78;5064284;28;20098;-82
2023/08/20 10:39:37;;;;;;;0.50;0.43;;;;;;;19.81;69.02;102157.97;5062609;28;20479;-81
2023/08/20 10:42:23;;;;;;;2.85;0.50;;;;;;;19.83;69.20;102162.28;5060075;28;20376;-82
2023/08/20 10:45:04;;;;;;;1.95;0.50;;;;;;;19.78;69.21;102148.34;5065304;28;20540;-79
2023/08/20 10:47:47;;;;;;;0.60;0.57;;;;;;;19.86;69.03;102167.50;5064458;28;20376;-80
2023/08/20 10:50:17;;;;;;;1.05;0.73;;;;;;;19.85;69.15;102154.31;5063129;28;20055;-80
2023/08/20 10:52:49;;;;;;;1.88;0.82;;;;;;;19.84;69.23;102158.75;5061472;28;20042;-79
2023/08/20 10:55:17;;;;;;;2.25;0.70;;;;;;;19.87;69.21;102157.78;5060139;28;20044;-80
2023/08/20 10:57:44;;;;;;;1.13;1.13;;;;;;;19.88;68.96;102163.00;5063892;28;20047;-79
2023/08/20 11:00:16;;;;;;;3.10;0.70;;;;;;;19.89;68.94;102161.22;5064460;28;20402;-80
2023/08/20 11:02:44;;;;;;;0.65;0.65;;;;;;;19.88;68.94;102155.03;5063623;28;20041;-79
2023/08/20 11:05:18;;;;;;;1.52;0.60;;;;;;;19.89;69.06;102156.78;5061248;28;20453;-79
2023/08/20 11:07:48;;;;;;;0.70;0.60;;;;;;;19.89;68.82;102156.78;5064241;28;20044;-79
2023/08/20 11:10:16;;;;;;;0.85;0.70;;;;;;;19.89;68.97;102151.47;5060446;28;20441;-80
2023/08/20 11:12:44;;;;;;;1.00;0.80;;;;;;;19.90;68.99;102150.56;5063765;28;20052;-79
2023/08/20 11:15:12;;;;;;;3.58;0.80;;;;;;;19.77;69.17;102125.41;5062646;28;20051;-79
2023/08/20 11:17:43;;;;;;;1.85;0.90;;;;;;;19.92;69.14;102154.03;5061793;28;20470;-80
2023/08/20 11:20:12;;;;;;;1.92;1.15;;;;;;;19.92;69.01;102159.34;5058664;28;20048;-80
2023/08/20 11:22:40;;;;;;;4.47;0.70;;;;;;;19.94;69.18;102154.81;5061816;28;20567;-79
2023/08/20 11:25:13;;;;;;;1.40;0.80;;;;;;;19.95;68.86;102145.06;5064427;28;20040;-80
2023/08/20 11:27:42;;;;;;;1.33;0.60;;;;;;;19.89;68.97;102135.56;5063494;28;20108;-80
2023/08/20 11:30:11;;;;;;;0.98;0.75;;;;;;;19.97;69.12;102144.09;5058605;28;20052;-80
2023/08/20 11:32:38;;;;;;;1.48;0.70;;;;;;;19.98;69.05;102142.34;5062958;28;20041;-79